メインページ
METAR-TAF:

METAR-TAF

空港 :

上海浦東, 中華人民共和国

上海浦東国際空港

緯度: 31-07N, 経度: 121-46E, 海抜: 4m

現時点の気象観測

当レポートは30分前の20:30(UTC)に作成
の風 6kt、北東から東/南東の間で変化する
気温 10°C
湿度 82%
気圧 1022 hPa
視程10km以上
高度1500ftの千切れ雲あり

METAR: ZSPD 292030Z 09003MPS 040V120 9999 BKN015 10/07 Q1022 NOSIG

時間: 05:00 (21:00 UTC)

予報

当レポートは5時間35分前の15:25(UTC)に作成
予報は29日の 18時(UTC)から 30日の 18時(UTC)まで有効
東/北東の風 8kt
視程: 6000m
高度1100ftの千切れ雲あり
確率 40% :
30日の 12時(UTC)から 30日の 18時(UTC)まで一時的に
視程: 2000m
高度800ftの千切れ雲あり
高度3000ftの雲はほとんどない, 積乱雲.
高度3300ftの曇り
にわか雨, 靄

TAF: ZSPD 291525Z 2918/3018 07004MPS 6000 BKN011 TX13/3006Z TN08/2921Z PROB40 TEMPO 3012/3018 2000 SHRA BR BKN008 FEW030CB OVC033

4,000以上の空港の気象観測と天気予報(METAR報とTAF報)

利用可能な観測所は地図上に黄色い丸と赤い丸で示す。

丸の上にカーソルを重ねると観測所名を参照できる。

次にクリックすると気象観測と天気予報を参照できる。

マップの切り替え:黒色「×」印の緑ボタンをクリックして拡大、「-」印の緑ボタンをクリックして縮小、緑色の三角印をクリックして隣りの地図に切り替え


METAR-TAF: